createdAt,value
2023-04-04T00:00:56.022Z,2.20
2023-04-04T00:03:24.628Z,2.50
2023-04-04T00:05:53.424Z,2.30
2023-04-04T00:08:22.126Z,2.40
2023-04-04T00:10:50.817Z,2.60
2023-04-04T00:13:19.470Z,2.60
2023-04-04T00:15:48.593Z,3.30
2023-04-04T00:18:17.128Z,3.30
2023-04-04T00:20:45.980Z,2.80
2023-04-04T00:23:14.471Z,3.00
2023-04-04T00:25:42.949Z,2.50
2023-04-04T00:28:11.324Z,2.20
2023-04-04T00:30:40.117Z,2.80
2023-04-04T00:33:08.918Z,2.60
2023-04-04T00:35:37.496Z,2.40
2023-04-04T00:38:05.886Z,2.50
2023-04-04T00:40:43.195Z,2.80
2023-04-04T00:43:11.744Z,2.70
2023-04-04T00:45:41.501Z,2.40
2023-04-04T00:48:10.233Z,2.40
2023-04-04T00:50:38.872Z,3.10
2023-04-04T00:53:07.538Z,2.70
2023-04-04T00:55:39.981Z,2.90
2023-04-04T00:58:09.778Z,2.80
2023-04-04T01:00:38.539Z,2.40
2023-04-04T01:03:10.446Z,2.40
2023-04-04T01:05:39.714Z,2.70
2023-04-04T01:08:08.266Z,2.30
2023-04-04T01:10:37.282Z,2.50
2023-04-04T01:13:06.751Z,2.70
2023-04-04T01:15:35.499Z,2.30
2023-04-04T01:18:04.761Z,2.70
2023-04-04T01:20:37.443Z,2.30
2023-04-04T01:23:07.056Z,2.50
2023-04-04T01:25:36.932Z,2.60
2023-04-04T01:28:09.474Z,2.30
2023-04-04T01:30:40.366Z,2.60
2023-04-04T01:33:28.581Z,2.80
2023-04-04T01:36:17.332Z,2.70
2023-04-04T01:39:09.075Z,2.70
2023-04-04T01:41:38.925Z,3.10
2023-04-04T01:44:10.365Z,3.40
2023-04-04T01:46:39.265Z,2.90
2023-04-04T01:49:08.952Z,2.80
2023-04-04T01:51:39.145Z,3.00
2023-04-04T01:54:07.987Z,2.90
2023-04-04T01:56:36.215Z,2.70
2023-04-04T01:59:04.905Z,2.70
2023-04-04T02:01:33.594Z,2.80
2023-04-04T02:04:02.645Z,3.10
2023-04-04T02:06:31.305Z,3.30
2023-04-04T02:09:00.037Z,2.70
2023-04-04T02:11:28.404Z,2.80
2023-04-04T02:13:57.483Z,2.80
2023-04-04T02:16:27.932Z,2.50
2023-04-04T02:18:56.956Z,3.10
2023-04-04T02:21:27.394Z,2.60
2023-04-04T02:23:55.917Z,2.90
2023-04-04T02:26:24.379Z,3.30
2023-04-04T02:28:52.825Z,2.60
2023-04-04T02:31:21.974Z,2.70
2023-04-04T02:33:50.539Z,2.90
2023-04-04T02:36:20.720Z,2.40
2023-04-04T02:38:50.028Z,2.70
2023-04-04T02:41:18.474Z,2.50
2023-04-04T02:43:47.090Z,3.10
2023-04-04T02:46:21.630Z,2.60
2023-04-04T02:48:54.804Z,2.70
2023-04-04T02:51:23.568Z,3.00
2023-04-04T02:53:51.926Z,2.70
2023-04-04T02:56:28.171Z,3.10
2023-04-04T02:58:56.712Z,2.80
2023-04-04T03:01:25.180Z,3.10
2023-04-04T03:03:54.167Z,3.10
2023-04-04T03:06:23.750Z,3.20
2023-04-04T03:08:52.142Z,3.20
2023-04-04T03:11:21.643Z,3.20
2023-04-04T03:13:52.281Z,3.70
2023-04-04T03:16:23.699Z,3.20
2023-04-04T03:18:53.086Z,3.30
2023-04-04T03:21:22.849Z,3.20
2023-04-04T03:23:51.809Z,3.80
2023-04-04T03:26:20.635Z,3.00
2023-04-04T03:28:49.065Z,3.40
2023-04-04T03:31:18.285Z,3.30
2023-04-04T03:33:46.743Z,3.60
2023-04-04T03:36:15.191Z,3.50
2023-04-04T03:38:43.834Z,3.80
2023-04-04T03:41:12.820Z,3.70
2023-04-04T03:43:41.211Z,3.20
2023-04-04T03:46:09.953Z,3.80
2023-04-04T03:48:38.449Z,3.50
2023-04-04T03:51:09.677Z,3.90
2023-04-04T03:53:38.616Z,3.80
2023-04-04T03:56:07.251Z,3.20
2023-04-04T03:58:36.960Z,4.40
2023-04-04T04:01:05.581Z,4.30
2023-04-04T04:03:34.136Z,3.90
2023-04-04T04:06:03.065Z,3.10
2023-04-04T04:08:31.808Z,3.50
2023-04-04T04:11:06.230Z,3.10
2023-04-04T04:13:39.096Z,3.30
2023-04-04T04:16:07.919Z,3.20
2023-04-04T04:18:37.553Z,3.40
2023-04-04T04:21:07.179Z,3.20
2023-04-04T04:23:35.538Z,3.50
2023-04-04T04:26:05.376Z,3.40
2023-04-04T04:28:34.986Z,3.50
2023-04-04T04:31:08.131Z,3.10
2023-04-04T04:33:42.050Z,3.70
2023-04-04T04:36:10.899Z,3.20
2023-04-04T04:38:54.033Z,3.50
2023-04-04T04:41:23.226Z,4.80
2023-04-04T04:43:52.827Z,5.20
2023-04-04T04:46:22.332Z,4.50
2023-04-04T04:48:51.064Z,6.50
2023-04-04T04:51:20.668Z,3.80
2023-04-04T04:53:52.472Z,3.50
2023-04-04T04:56:21.162Z,4.00
2023-04-04T04:58:51.253Z,3.60
2023-04-04T05:01:27.795Z,3.80
2023-04-04T05:03:56.793Z,3.80
2023-04-04T05:06:30.791Z,3.30
2023-04-04T05:08:59.936Z,4.10
2023-04-04T05:11:34.658Z,4.40
2023-04-04T05:14:03.689Z,4.00
2023-04-04T05:16:36.298Z,4.10
2023-04-04T05:19:05.170Z,4.10
2023-04-04T05:21:38.398Z,3.90
2023-04-04T05:24:08.270Z,4.40
2023-04-04T05:26:38.921Z,4.70
2023-04-04T05:29:08.356Z,4.40
2023-04-04T05:31:38.871Z,4.50
2023-04-04T05:34:10.749Z,4.30
2023-04-04T05:36:39.310Z,4.70
2023-04-04T05:39:08.188Z,3.70
2023-04-04T05:41:40.521Z,3.90
2023-04-04T05:44:16.315Z,4.10
2023-04-04T05:46:44.920Z,4.10
2023-04-04T05:49:13.626Z,4.80
2023-04-04T05:51:45.594Z,4.40
2023-04-04T05:54:16.329Z,4.00
2023-04-04T05:56:44.801Z,3.60
2023-04-04T05:59:39.436Z,4.30
2023-04-04T06:02:09.865Z,3.60
2023-04-04T06:04:42.297Z,4.20
2023-04-04T06:07:12.466Z,4.10
2023-04-04T06:09:41.386Z,3.60
2023-04-04T06:12:10.339Z,3.70
2023-04-04T06:14:39.015Z,4.00
2023-04-04T06:17:08.439Z,4.70
2023-04-04T06:19:37.176Z,3.70
2023-04-04T06:22:05.571Z,4.00
2023-04-04T06:24:37.530Z,3.60
2023-04-04T06:27:06.817Z,3.50
2023-04-04T06:29:37.432Z,4.40
2023-04-04T06:32:08.010Z,3.60
2023-04-04T06:34:39.810Z,3.80
2023-04-04T06:37:09.129Z,3.50
2023-04-04T06:39:44.176Z,3.50
2023-04-04T06:42:21.604Z,3.60
2023-04-04T06:44:51.919Z,4.00
2023-04-04T06:47:21.512Z,3.00
2023-04-04T06:49:50.102Z,3.40
2023-04-04T06:52:18.982Z,3.20
2023-04-04T06:54:47.360Z,4.00
2023-04-04T06:57:16.877Z,3.40
2023-04-04T06:59:45.711Z,3.40
2023-04-04T07:02:13.997Z,3.30
2023-04-04T07:04:43.084Z,4.10
2023-04-04T07:07:12.424Z,4.30
2023-04-04T07:09:40.877Z,5.00
2023-04-04T07:12:09.319Z,3.80
2023-04-04T07:14:37.820Z,3.80
2023-04-04T07:17:17.169Z,4.30
2023-04-04T07:19:52.403Z,3.50
2023-04-04T07:22:20.934Z,3.60
2023-04-04T07:24:49.519Z,3.90
2023-04-04T07:27:18.260Z,3.30
2023-04-04T07:29:46.907Z,3.00
2023-04-04T07:32:15.215Z,3.40
2023-04-04T07:34:44.764Z,3.40
2023-04-04T07:37:13.155Z,3.20
2023-04-04T07:39:42.196Z,4.10
2023-04-04T07:42:10.761Z,3.70
2023-04-04T07:44:39.130Z,3.00
2023-04-04T07:47:10.309Z,3.30
2023-04-04T07:49:39.182Z,3.00
2023-04-04T07:52:07.545Z,3.10
2023-04-04T07:54:36.381Z,3.20
2023-04-04T07:57:10.126Z,2.80
2023-04-04T07:59:38.505Z,2.80
2023-04-04T08:02:07.469Z,2.70
2023-04-04T08:04:36.312Z,2.90
2023-04-04T08:07:04.876Z,3.20
2023-04-04T08:09:36.449Z,2.90
2023-04-04T08:12:06.417Z,2.90
2023-04-04T08:14:34.889Z,2.80
2023-04-04T08:17:03.297Z,2.80
2023-04-04T08:19:31.975Z,3.30
2023-04-04T08:22:00.455Z,3.60
2023-04-04T08:24:28.884Z,3.10
2023-04-04T08:27:05.103Z,3.60
2023-04-04T08:29:34.817Z,3.10
2023-04-04T08:32:03.309Z,2.90
2023-04-04T08:34:32.282Z,2.70
2023-04-04T08:37:00.594Z,2.70
2023-04-04T08:39:28.897Z,2.90
2023-04-04T08:42:07.800Z,2.70
2023-04-04T08:44:40.524Z,2.50
2023-04-04T08:47:10.874Z,2.60
2023-04-04T08:49:43.607Z,2.50
2023-04-04T08:52:21.980Z,2.70
2023-04-04T08:54:52.875Z,2.60
2023-04-04T08:57:21.383Z,2.30
2023-04-04T08:59:49.876Z,2.20
2023-04-04T09:02:26.252Z,2.50
2023-04-04T09:05:05.446Z,2.10
2023-04-04T09:07:38.143Z,2.30
2023-04-04T09:10:11.974Z,2.30
2023-04-04T09:12:44.468Z,2.30
2023-04-04T09:15:13.860Z,2.10
2023-04-04T09:17:42.668Z,1.70
2023-04-04T09:20:50.063Z,2.20
2023-04-04T09:23:20.924Z,2.00
2023-04-04T09:26:03.307Z,2.00
2023-04-04T09:28:34.314Z,3.40
2023-04-04T09:31:07.264Z,2.40
2023-04-04T09:33:36.556Z,2.00
2023-04-04T09:36:11.726Z,2.50
2023-04-04T09:38:44.179Z,2.40
2023-04-04T09:41:16.189Z,2.40
2023-04-04T09:43:45.753Z,2.70
2023-04-04T09:46:16.154Z,2.80
2023-04-04T09:48:51.050Z,2.60
2023-04-04T09:51:19.599Z,3.00
2023-04-04T09:53:48.767Z,2.10
2023-04-04T09:56:17.706Z,2.50
2023-04-04T09:59:00.678Z,2.30
2023-04-04T10:01:33.822Z,2.40
2023-04-04T10:04:04.713Z,3.20
2023-04-04T10:06:33.390Z,2.40
2023-04-04T10:09:01.911Z,2.90
2023-04-04T10:11:32.376Z,2.10
2023-04-04T10:14:04.186Z,2.20
2023-04-04T10:16:34.670Z,2.60
2023-04-04T10:19:04.669Z,2.60
2023-04-04T10:21:34.041Z,2.40
2023-04-04T10:24:09.505Z,2.10
2023-04-04T10:26:39.169Z,1.90
2023-04-04T10:29:07.583Z,2.40
2023-04-04T10:31:41.712Z,2.30
2023-04-04T10:34:15.988Z,2.40
2023-04-04T10:36:49.540Z,2.60
2023-04-04T10:39:36.493Z,2.50
2023-04-04T10:42:07.996Z,2.20
2023-04-04T10:44:40.354Z,2.00
2023-04-04T10:47:22.264Z,2.40
2023-04-04T10:49:51.655Z,2.70
2023-04-04T10:52:24.414Z,1.90
2023-04-04T10:54:57.544Z,1.80
2023-04-04T10:57:28.331Z,2.00
2023-04-04T11:00:01.462Z,1.90
2023-04-04T11:02:51.616Z,2.20
2023-04-04T11:05:27.116Z,2.10
2023-04-04T11:08:08.234Z,1.80
2023-04-04T11:13:19.524Z,1.90
2023-04-04T11:15:58.231Z,1.90
2023-04-04T11:18:34.250Z,1.80
2023-04-04T11:21:05.411Z,1.90
2023-04-04T11:23:59.907Z,2.40
2023-04-04T11:26:28.333Z,2.00
2023-04-04T11:29:01.786Z,1.90
2023-04-04T11:31:40.982Z,2.60
2023-04-04T11:34:29.565Z,2.10
2023-04-04T11:37:01.893Z,2.30
2023-04-04T11:39:31.490Z,1.90
2023-04-04T11:42:13.813Z,2.50
2023-04-04T11:45:03.428Z,2.20
2023-04-04T11:47:32.159Z,2.10
2023-04-04T11:50:02.610Z,2.60
2023-04-04T11:52:35.556Z,2.30
2023-04-04T11:55:15.721Z,2.50
2023-04-04T11:57:44.187Z,2.80
2023-04-04T12:00:15.653Z,3.20
2023-04-04T12:02:44.476Z,2.30
2023-04-04T12:05:13.407Z,2.40
2023-04-04T12:07:43.078Z,2.80
2023-04-04T12:10:11.737Z,2.90
2023-04-04T12:12:40.164Z,2.60
2023-04-04T12:15:16.974Z,2.30
2023-04-04T12:17:46.693Z,2.70
2023-04-04T12:20:21.950Z,2.20
2023-04-04T12:22:54.434Z,2.20
2023-04-04T12:25:28.587Z,2.80
2023-04-04T12:27:57.571Z,3.00
2023-04-04T12:30:26.668Z,3.00
2023-04-04T12:32:55.101Z,2.80
2023-04-04T12:35:23.891Z,2.90
2023-04-04T12:38:02.786Z,2.90
2023-04-04T12:40:39.269Z,3.60
2023-04-04T12:43:09.501Z,3.50
2023-04-04T12:45:41.561Z,4.90
2023-04-04T12:48:13.877Z,4.00
2023-04-04T12:53:28.556Z,3.30
2023-04-04T12:56:04.832Z,2.90
2023-04-04T12:58:35.849Z,3.10
2023-04-04T13:01:07.370Z,2.80
2023-04-04T13:03:37.990Z,2.70
2023-04-04T13:06:16.802Z,3.10
2023-04-04T13:08:55.238Z,3.90
2023-04-04T13:11:24.228Z,2.90
2023-04-04T13:14:03.233Z,3.20
2023-04-04T13:16:37.506Z,3.40
2023-04-04T13:19:06.297Z,4.60
2023-04-04T13:21:35.320Z,3.90
2023-04-04T13:24:04.382Z,4.50
2023-04-04T13:26:32.938Z,3.80
2023-04-04T13:29:01.503Z,3.90
2023-04-04T13:31:30.088Z,3.80
2023-04-04T13:33:58.752Z,4.10
2023-04-04T13:36:28.566Z,5.10
2023-04-04T13:38:57.746Z,4.20
2023-04-04T13:41:26.347Z,3.80
2023-04-04T13:43:56.726Z,4.20
2023-04-04T13:46:25.383Z,4.00
2023-04-04T13:48:54.098Z,4.70
2023-04-04T13:51:24.639Z,4.40
2023-04-04T13:53:53.109Z,4.60
2023-04-04T13:56:22.261Z,4.50
2023-04-04T13:58:51.462Z,4.00
2023-04-04T14:01:21.992Z,4.30
2023-04-04T14:03:50.667Z,4.20
2023-04-04T14:06:19.220Z,4.20
2023-04-04T14:08:48.132Z,4.30
2023-04-04T14:11:16.829Z,4.40
2023-04-04T14:13:46.334Z,4.10
2023-04-04T14:16:15.041Z,4.30
2023-04-04T14:18:44.606Z,3.40
2023-04-04T14:21:12.868Z,3.70
2023-04-04T14:23:41.478Z,3.80
2023-04-04T14:26:10.107Z,4.50
2023-04-04T14:28:38.825Z,4.10
2023-04-04T14:31:07.463Z,4.10
2023-04-04T14:33:36.270Z,5.30
2023-04-04T14:36:04.763Z,3.70
2023-04-04T14:38:33.272Z,5.40
2023-04-04T14:41:02.252Z,4.50
2023-04-04T14:43:31.113Z,4.70
2023-04-04T14:45:59.750Z,4.50
2023-04-04T14:48:28.202Z,4.00
2023-04-04T14:50:57.005Z,4.90
2023-04-04T14:53:25.553Z,4.10
2023-04-04T14:55:54.111Z,4.20
2023-04-04T14:58:22.553Z,4.10
2023-04-04T15:00:51.276Z,4.90
2023-04-04T15:03:19.733Z,4.30
2023-04-04T15:05:49.223Z,3.50
2023-04-04T15:08:17.658Z,4.50
2023-04-04T15:10:46.416Z,3.50
2023-04-04T15:13:15.004Z,4.40
2023-04-04T15:15:44.407Z,4.30
2023-04-04T15:18:13.052Z,4.50
2023-04-04T15:20:41.785Z,4.80
2023-04-04T15:23:11.033Z,5.10
2023-04-04T15:25:39.542Z,4.40
2023-04-04T15:28:07.934Z,4.30
2023-04-04T15:30:36.509Z,4.60
2023-04-04T15:33:05.015Z,4.90
2023-04-04T15:35:33.680Z,4.10
2023-04-04T15:38:02.189Z,3.50
2023-04-04T15:40:30.697Z,4.10
2023-04-04T15:42:59.108Z,4.30
2023-04-04T15:45:27.675Z,4.40
2023-04-04T15:47:56.069Z,3.70
2023-04-04T15:50:24.734Z,3.70
2023-04-04T15:52:53.167Z,4.10
2023-04-04T15:55:22.126Z,4.50
2023-04-04T15:57:50.591Z,3.60
2023-04-04T16:00:19.152Z,3.60
2023-04-04T16:02:47.743Z,3.80
2023-04-04T16:05:16.333Z,4.70
2023-04-04T16:07:45.039Z,4.10
2023-04-04T16:10:13.556Z,3.50
2023-04-04T16:12:42.289Z,3.60
2023-04-04T16:15:12.013Z,3.00
2023-04-04T16:17:40.513Z,3.50
2023-04-04T16:20:09.858Z,3.60
2023-04-04T16:22:38.342Z,4.00
2023-04-04T16:25:09.040Z,4.70
2023-04-04T16:27:37.397Z,4.50
2023-04-04T16:30:06.355Z,6.30
2023-04-04T16:32:34.794Z,3.70
2023-04-04T16:35:03.452Z,3.30
2023-04-04T16:37:31.762Z,3.50
2023-04-04T16:40:01.398Z,3.70
2023-04-04T16:42:29.931Z,5.20
2023-04-04T16:44:58.527Z,4.40
2023-04-04T16:47:28.175Z,5.40
2023-04-04T16:49:56.788Z,3.30
2023-04-04T16:52:25.894Z,3.10
2023-04-04T16:54:55.121Z,2.70
2023-04-04T16:57:23.498Z,3.00
2023-04-04T16:59:52.260Z,2.80
2023-04-04T17:02:20.979Z,2.20
2023-04-04T17:04:49.358Z,2.60
2023-04-04T17:07:17.797Z,2.60
2023-04-04T17:09:48.182Z,2.80
2023-04-04T17:12:17.221Z,2.70
2023-04-04T17:14:45.621Z,3.50
2023-04-04T17:17:15.461Z,2.40
2023-04-04T17:19:44.685Z,2.80
2023-04-04T17:22:13.208Z,3.90
2023-04-04T17:24:42.128Z,4.00
2023-04-04T17:27:10.993Z,3.20
2023-04-04T17:29:39.576Z,3.60
2023-04-04T17:32:08.271Z,3.90
2023-04-04T17:34:36.878Z,3.80
2023-04-04T17:37:05.490Z,3.10
2023-04-04T17:39:33.970Z,3.40
2023-04-04T17:42:02.390Z,2.70
2023-04-04T17:44:30.953Z,2.40
2023-04-04T17:47:00.526Z,2.60
2023-04-04T17:49:29.522Z,2.40
2023-04-04T17:52:00.876Z,2.50
2023-04-04T17:54:30.789Z,2.10
2023-04-04T17:56:59.625Z,2.20
2023-04-04T17:59:28.256Z,2.30
2023-04-04T18:01:57.065Z,2.10
2023-04-04T18:04:25.781Z,1.80
2023-04-04T18:06:54.747Z,2.80
2023-04-04T18:09:23.905Z,2.30
2023-04-04T18:11:52.441Z,2.40
2023-04-04T18:14:20.907Z,2.30
2023-04-04T18:16:49.447Z,1.70
2023-04-04T18:19:18.014Z,2.00
2023-04-04T18:21:51.582Z,2.10
2023-04-04T18:24:21.472Z,1.90
2023-04-04T18:26:52.415Z,1.70
2023-04-04T18:29:29.952Z,1.90
2023-04-04T18:32:03.009Z,1.80
2023-04-04T18:34:31.611Z,1.80
2023-04-04T18:37:00.130Z,2.10
2023-04-04T18:39:29.307Z,1.40
2023-04-04T18:41:57.803Z,1.70
2023-04-04T18:44:27.237Z,2.00
2023-04-04T18:46:58.381Z,1.70
2023-04-04T18:49:29.992Z,1.90
2023-04-04T18:51:58.506Z,2.30
2023-04-04T18:54:27.298Z,1.80
2023-04-04T18:56:57.283Z,2.50
2023-04-04T18:59:26.014Z,2.10
2023-04-04T19:01:54.647Z,2.00
2023-04-04T19:04:23.331Z,2.20
2023-04-04T19:06:53.713Z,2.10
2023-04-04T19:09:22.455Z,2.30
2023-04-04T19:11:53.086Z,2.30
2023-04-04T19:14:21.492Z,2.10
2023-04-04T19:16:50.868Z,1.40
2023-04-04T19:19:21.687Z,1.90
2023-04-04T19:21:50.008Z,1.60
2023-04-04T19:24:18.795Z,1.60
2023-04-04T19:26:47.241Z,1.80
2023-04-04T19:29:21.984Z,1.80
2023-04-04T19:31:53.457Z,1.80
2023-04-04T19:34:22.315Z,1.80
2023-04-04T19:36:50.763Z,1.90
2023-04-04T19:39:20.951Z,1.80
2023-04-04T19:41:49.346Z,2.10
2023-04-04T19:44:21.253Z,2.20
2023-04-04T19:46:49.909Z,2.10
2023-04-04T19:49:19.455Z,1.70
2023-04-04T19:51:53.869Z,1.90
2023-04-04T19:54:31.962Z,1.50
2023-04-04T19:57:09.098Z,1.70
2023-04-04T20:00:11.244Z,1.80
2023-04-04T20:02:47.903Z,2.10
2023-04-04T20:05:33.953Z,2.00
2023-04-04T20:08:02.327Z,2.20
2023-04-04T20:10:39.049Z,2.20
2023-04-04T20:13:08.888Z,2.50
2023-04-04T20:15:47.708Z,2.40
2023-04-04T20:18:28.711Z,2.50
2023-04-04T20:20:58.913Z,2.10
2023-04-04T20:23:28.805Z,2.10
2023-04-04T20:26:06.074Z,2.10
2023-04-04T20:28:35.844Z,2.10
2023-04-04T20:31:12.207Z,2.10
2023-04-04T20:33:41.435Z,2.00
2023-04-04T20:36:30.234Z,2.00
2023-04-04T20:38:59.835Z,2.20
2023-04-04T20:41:28.898Z,2.10
2023-04-04T20:43:59.717Z,2.20
2023-04-04T20:46:33.989Z,2.00
2023-04-04T20:49:02.579Z,2.20
2023-04-04T20:51:32.518Z,2.00
2023-04-04T20:54:03.181Z,1.80
2023-04-04T20:56:41.374Z,1.60
2023-04-04T20:59:32.464Z,2.10
2023-04-04T21:02:21.312Z,1.60
2023-04-04T21:04:52.302Z,1.80
2023-04-04T21:07:44.706Z,1.80
2023-04-04T21:10:22.684Z,2.10
2023-04-04T21:12:52.373Z,1.60
2023-04-04T21:15:23.739Z,2.10
2023-04-04T21:17:52.816Z,2.20
2023-04-04T21:20:46.464Z,2.20
2023-04-04T21:23:26.828Z,2.00
2023-04-04T21:25:58.871Z,1.80
2023-04-04T21:30:59.243Z,2.00
2023-04-04T21:33:27.725Z,1.70
2023-04-04T21:35:58.878Z,1.80
2023-04-04T21:38:33.888Z,2.00
2023-04-04T21:41:13.023Z,1.90
2023-04-04T21:43:41.645Z,2.00
2023-04-04T21:46:10.956Z,1.90
2023-04-04T21:48:39.328Z,1.80
2023-04-04T21:51:07.867Z,1.90
2023-04-04T21:53:36.222Z,1.90
2023-04-04T21:56:04.801Z,2.00
2023-04-04T21:58:33.306Z,2.10
2023-04-04T22:01:01.597Z,2.10
2023-04-04T22:03:29.924Z,1.90
2023-04-04T22:05:58.672Z,2.00
2023-04-04T22:08:27.003Z,2.20
2023-04-04T22:10:59.355Z,2.00
2023-04-04T22:13:33.745Z,1.80
2023-04-04T22:16:04.961Z,1.90
2023-04-04T22:18:33.471Z,2.00
2023-04-04T22:21:05.211Z,1.90
2023-04-04T22:23:35.379Z,1.90
2023-04-04T22:26:08.305Z,2.00
2023-04-04T22:28:39.004Z,2.60
2023-04-04T22:31:08.341Z,2.60
2023-04-04T22:33:36.766Z,2.30
2023-04-04T22:36:10.256Z,2.30
2023-04-04T22:38:39.582Z,2.60
2023-04-04T22:41:07.902Z,2.40
2023-04-04T22:43:36.282Z,2.40
2023-04-04T22:46:05.026Z,2.00
2023-04-04T22:48:41.494Z,2.10
2023-04-04T22:51:10.122Z,2.20
2023-04-04T22:53:38.489Z,2.10
2023-04-04T22:56:07.227Z,2.00
2023-04-04T22:58:35.885Z,2.00
2023-04-04T23:01:04.864Z,2.30
2023-04-04T23:03:33.734Z,2.30
2023-04-04T23:06:02.169Z,2.40
2023-04-04T23:08:30.517Z,3.30
2023-04-04T23:10:58.850Z,2.60
2023-04-04T23:13:27.329Z,2.60
2023-04-04T23:15:55.750Z,2.30
2023-04-04T23:18:24.480Z,2.60
2023-04-04T23:20:53.640Z,3.30
2023-04-04T23:23:21.994Z,3.00
2023-04-04T23:25:50.594Z,3.20
2023-04-04T23:28:19.407Z,4.50
2023-04-04T23:30:47.659Z,4.00
2023-04-04T23:33:16.649Z,3.40
2023-04-04T23:35:45.651Z,3.00
2023-04-04T23:38:14.038Z,2.30
2023-04-04T23:40:42.669Z,2.10
2023-04-04T23:43:11.264Z,2.10
2023-04-04T23:45:40.573Z,1.80
2023-04-04T23:48:08.914Z,1.90
2023-04-04T23:50:38.372Z,2.10
2023-04-04T23:53:06.968Z,2.20
2023-04-04T23:55:35.648Z,2.40
2023-04-04T23:58:05.266Z,2.90
